Time;durP1;ratioP1;P1;durP2;ratioP2;P2;SDS_P1;SDS_P2;PMS_P1;PMS_P2;Temp;Humidity;BMP_temperature;BMP_pressure;BME280_temperature;BME280_humidity;BME280_pressure;Samples;Min_cycle;Max_cycle;Signal;HPM_P1;HPM_P2
2022/03/26 00:00:26;;;;;;;130.50;60.20;;;9.20;99.90;;;;;;6244399;23;20532;-74
2022/03/26 00:02:53;;;;;;;112.53;57.78;;;9.20;99.90;;;;;;6245140;22;20265;-74
2022/03/26 00:05:20;;;;;;;110.07;58.50;;;9.20;99.90;;;;;;6244940;22;20274;-75
2022/03/26 00:07:47;;;;;;;108.47;59.35;;;9.10;99.90;;;;;;6252416;22;20278;-73
2022/03/26 00:10:16;;;;;;;107.43;57.03;;;9.10;99.90;;;;;;6244793;23;20170;-73
2022/03/26 00:12:43;;;;;;;129.18;61.53;;;9.10;99.90;;;;;;6245215;23;20242;-73
2022/03/26 00:15:12;;;;;;;108.75;54.65;;;9.10;99.90;;;;;;6244880;22;20201;-72
2022/03/26 00:17:40;;;;;;;122.57;59.05;;;9.20;99.90;;;;;;6244794;23;20159;-73
2022/03/26 00:20:08;;;;;;;113.15;58.22;;;9.10;99.90;;;;;;6244167;23;20586;-75
2022/03/26 00:22:35;;;;;;;110.10;57.75;;;9.10;99.90;;;;;;6245185;22;20174;-72
2022/03/26 00:25:02;;;;;;;109.53;58.40;;;9.00;99.90;;;;;;6244491;22;20199;-75
2022/03/26 00:27:30;;;;;;;111.63;56.80;;;9.10;99.90;;;;;;6245060;23;20266;-73
2022/03/26 00:29:57;;;;;;;111.00;58.28;;;9.00;99.90;;;;;;6244089;23;20167;-74
2022/03/26 00:32:24;;;;;;;115.03;58.95;;;9.00;99.90;;;;;;6244260;23;20180;-75
2022/03/26 00:34:52;;;;;;;111.00;55.53;;;9.00;99.90;;;;;;6245602;22;20205;-73
2022/03/26 00:37:18;;;;;;;112.20;58.35;;;8.90;99.90;;;;;;6246908;22;20189;-74
2022/03/26 00:39:45;;;;;;;103.75;55.25;;;8.90;99.90;;;;;;6246512;23;20195;-74
2022/03/26 00:42:12;;;;;;;111.03;54.00;;;8.80;99.90;;;;;;6253997;23;20166;-75
2022/03/26 00:44:41;;;;;;;110.85;57.70;;;8.80;99.90;;;;;;6247456;22;20498;-73
2022/03/26 00:47:08;;;;;;;114.88;56.13;;;8.70;99.90;;;;;;6246866;23;20222;-73
2022/03/26 00:49:35;;;;;;;104.28;56.13;;;8.70;99.90;;;;;;6246540;23;20493;-73
2022/03/26 00:52:03;;;;;;;113.20;56.47;;;8.70;99.90;;;;;;6246538;23;20247;-73
2022/03/26 00:54:30;;;;;;;121.97;59.60;;;8.70;99.90;;;;;;6246620;22;20198;-72
2022/03/26 00:56:58;;;;;;;114.65;59.55;;;8.60;99.90;;;;;;6247093;23;20166;-75
2022/03/26 00:59:25;;;;;;;111.97;56.33;;;8.60;99.90;;;;;;6246528;23;20197;-73
2022/03/26 01:01:53;;;;;;;123.40;59.35;;;8.70;99.90;;;;;;6246038;23;20647;-74
2022/03/26 01:04:20;;;;;;;113.95;55.30;;;8.70;99.90;;;;;;6246209;22;20194;-73
2022/03/26 01:06:47;;;;;;;114.55;54.55;;;8.60;99.90;;;;;;6246890;23;20197;-73
2022/03/26 01:09:14;;;;;;;103.15;55.90;;;8.60;99.90;;;;;;6246274;23;20159;-75
2022/03/26 01:11:41;;;;;;;114.53;63.28;;;8.60;99.90;;;;;;6245961;23;20209;-73
2022/03/26 01:14:08;;;;;;;110.57;58.47;;;8.60;99.90;;;;;;6246278;22;20198;-73
2022/03/26 01:16:35;;;;;;;121.32;59.58;;;8.60;99.90;;;;;;6246206;23;20167;-74
2022/03/26 01:19:04;;;;;;;111.18;61.00;;;8.60;99.90;;;;;;6251752;23;20170;-72
2022/03/26 01:21:31;;;;;;;123.32;58.95;;;8.60;99.90;;;;;;6247476;23;20533;-73
2022/03/26 01:23:58;;;;;;;114.70;55.47;;;8.50;99.90;;;;;;6245935;22;20197;-74
2022/03/26 01:26:25;;;;;;;114.18;60.10;;;8.50;99.90;;;;;;6247130;23;20192;-73
2022/03/26 01:28:52;;;;;;;121.13;60.10;;;8.50;99.90;;;;;;6247118;23;20590;-72
2022/03/26 01:31:20;;;;;;;116.70;62.33;;;8.50;99.90;;;;;;6247541;23;20159;-73
2022/03/26 01:33:48;;;;;;;121.75;62.60;;;8.40;99.90;;;;;;6249835;22;20205;-73
2022/03/26 01:36:17;;;;;;;130.25;64.45;;;8.40;99.90;;;;;;6251376;23;20159;-75
2022/03/26 01:38:45;;;;;;;108.75;60.47;;;8.30;99.90;;;;;;6253820;23;20609;-71
2022/03/26 01:41:12;;;;;;;118.38;58.90;;;8.30;99.90;;;;;;6254109;23;20167;-72
2022/03/26 01:43:41;;;;;;;120.22;64.82;;;8.30;99.90;;;;;;6256058;22;20585;-72
2022/03/26 01:46:10;;;;;;;113.18;58.08;;;8.30;99.90;;;;;;6253026;23;20169;-73
2022/03/26 01:48:37;;;;;;;124.47;60.33;;;8.30;99.90;;;;;;6246711;22;20229;-73
2022/03/26 01:51:14;;;;;;;114.97;62.78;;;8.20;99.90;;;;;;6246364;23;20166;-72
2022/03/26 01:53:43;;;;;;;124.70;62.40;;;8.20;99.90;;;;;;6244458;22;20201;-73
2022/03/26 01:56:11;;;;;;;133.63;66.13;;;8.20;99.90;;;;;;6248998;23;20241;-73
2022/03/26 01:58:38;;;;;;;127.15;64.03;;;8.20;99.90;;;;;;6250294;23;20185;-73
2022/03/26 02:01:05;;;;;;;117.95;65.40;;;8.20;99.90;;;;;;6245049;23;20205;-75
2022/03/26 02:03:32;;;;;;;124.82;64.40;;;8.20;99.90;;;;;;6246330;22;20230;-73
2022/03/26 02:05:58;;;;;;;118.88;63.97;;;8.10;99.90;;;;;;6246645;23;20216;-73
2022/03/26 02:08:26;;;;;;;131.10;68.72;;;8.10;99.90;;;;;;6246895;23;20218;-71
2022/03/26 02:10:54;;;;;;;134.52;63.42;;;8.10;99.90;;;;;;6245243;23;20624;-73
2022/03/26 02:13:21;;;;;;;129.73;63.15;;;8.10;99.90;;;;;;6246079;22;20163;-72
2022/03/26 02:15:48;;;;;;;130.60;65.38;;;8.10;99.90;;;;;;6246703;23;20198;-72
2022/03/26 02:18:15;;;;;;;122.85;64.50;;;8.20;99.90;;;;;;6245979;23;20159;-72
2022/03/26 02:20:44;;;;;;;119.78;62.67;;;8.20;99.90;;;;;;6245286;23;20158;-73
2022/03/26 02:23:11;;;;;;;132.80;67.60;;;8.10;99.90;;;;;;6245620;22;20167;-73
2022/03/26 02:25:38;;;;;;;125.43;59.17;;;8.10;99.90;;;;;;6246482;23;20198;-74
2022/03/26 02:28:07;;;;;;;130.45;61.97;;;8.10;99.90;;;;;;6246205;22;20266;-72
2022/03/26 02:30:34;;;;;;;121.38;58.42;;;8.10;99.90;;;;;;6247529;23;20166;-73
2022/03/26 02:33:01;;;;;;;123.70;64.80;;;8.10;99.90;;;;;;6255666;23;20244;-71
2022/03/26 02:35:28;;;;;;;129.10;62.67;;;8.10;99.90;;;;;;6248410;22;20205;-74
2022/03/26 02:37:56;;;;;;;135.00;62.95;;;8.10;99.90;;;;;;6246030;22;20162;-73
2022/03/26 02:40:23;;;;;;;121.20;62.00;;;8.00;99.90;;;;;;6244994;23;20206;-75
2022/03/26 02:42:50;;;;;;;127.15;61.72;;;8.00;99.90;;;;;;6245534;22;20202;-72
2022/03/26 02:45:17;;;;;;;116.35;58.78;;;8.00;99.90;;;;;;6245543;22;20568;-72
2022/03/26 02:47:44;;;;;;;125.43;60.88;;;8.00;99.90;;;;;;6245735;23;20208;-74
2022/03/26 02:50:12;;;;;;;123.57;62.20;;;8.00;99.90;;;;;;6244819;23;20204;-74
2022/03/26 02:52:39;;;;;;;130.98;58.47;;;8.00;99.90;;;;;;6244971;23;20177;-73
2022/03/26 02:55:10;;;;;;;110.18;59.67;;;8.00;99.90;;;;;;6245841;22;20225;-73
2022/03/26 02:57:37;;;;;;;127.88;59.92;;;8.00;99.90;;;;;;6245811;23;20549;-72
2022/03/26 03:00:06;;;;;;;111.47;57.47;;;8.00;99.90;;;;;;6244687;23;20217;-72
2022/03/26 03:02:35;;;;;;;127.70;58.47;;;8.00;99.90;;;;;;6245973;22;20163;-73
2022/03/26 03:05:02;;;;;;;116.57;59.88;;;7.90;99.90;;;;;;6245249;22;20205;-73
2022/03/26 03:07:30;;;;;;;132.13;64.05;;;8.00;99.90;;;;;;6245500;23;20241;-74
2022/03/26 03:09:57;;;;;;;127.20;66.38;;;7.90;99.90;;;;;;6250542;23;20204;-72
2022/03/26 03:12:25;;;;;;;113.75;58.33;;;8.00;99.90;;;;;;6249496;23;20245;-73
2022/03/26 03:14:52;;;;;;;135.10;64.00;;;8.00;99.90;;;;;;6245827;22;20201;-74
2022/03/26 03:17:19;;;;;;;132.15;65.68;;;7.90;99.90;;;;;;6244370;23;20510;-73
2022/03/26 03:19:46;;;;;;;125.68;61.55;;;7.90;99.90;;;;;;6244539;23;20594;-72
2022/03/26 03:22:13;;;;;;;122.97;60.85;;;8.00;99.90;;;;;;6246178;23;20224;-73
2022/03/26 03:24:40;;;;;;;119.07;57.08;;;7.90;99.90;;;;;;6245796;22;20559;-73
2022/03/26 03:27:07;;;;;;;123.03;59.33;;;7.80;99.90;;;;;;6245495;22;20268;-73
2022/03/26 03:29:36;;;;;;;128.73;60.65;;;7.80;99.90;;;;;;6244735;23;20165;-72
2022/03/26 03:32:03;;;;;;;114.80;58.72;;;7.80;99.90;;;;;;6245123;23;20640;-72
2022/03/26 03:34:30;;;;;;;112.95;57.08;;;7.90;99.90;;;;;;6245405;22;20236;-74
2022/03/26 03:36:57;;;;;;;128.57;60.47;;;7.80;99.90;;;;;;6245463;22;20166;-75
2022/03/26 03:39:25;;;;;;;109.88;56.10;;;7.80;99.90;;;;;;6245418;23;20180;-73
2022/03/26 03:41:52;;;;;;;118.38;60.35;;;7.80;99.90;;;;;;6244348;23;20194;-72
2022/03/26 03:44:19;;;;;;;115.80;62.45;;;7.80;99.90;;;;;;6245304;22;20201;-73
2022/03/26 03:46:47;;;;;;;124.38;60.03;;;7.80;99.90;;;;;;6248961;23;20240;-75
2022/03/26 03:49:14;;;;;;;117.68;54.63;;;7.70;99.90;;;;;;6246787;23;20196;-73
2022/03/26 03:51:41;;;;;;;114.28;61.00;;;7.70;99.90;;;;;;6244811;23;20166;-73
2022/03/26 03:54:11;;;;;;;120.13;58.30;;;7.70;99.90;;;;;;6247089;22;20228;-84
2022/03/26 03:56:45;;;;;;;124.00;64.15;;;7.60;99.90;;;;;;6254732;23;20508;-84
2022/03/26 03:59:12;;;;;;;116.40;57.00;;;7.50;99.90;;;;;;6268310;22;20190;-84
2022/03/26 04:01:41;;;;;;;126.63;65.43;;;7.50;99.90;;;;;;6271338;22;20188;-83
2022/03/26 04:04:12;;;;;;;121.05;61.45;;;7.50;99.90;;;;;;6271756;22;20181;-84
2022/03/26 04:06:38;;;;;;;121.55;58.63;;;7.50;99.90;;;;;;6272609;22;20167;-83
2022/03/26 04:09:05;;;;;;;108.03;56.85;;;7.40;99.90;;;;;;6272302;22;20231;-84
2022/03/26 04:11:32;;;;;;;117.70;59.28;;;7.50;99.90;;;;;;6273505;22;20168;-84
2022/03/26 04:13:59;;;;;;;119.18;55.35;;;7.50;99.90;;;;;;6274584;22;20196;-84
2022/03/26 04:16:26;;;;;;;110.00;55.72;;;7.50;99.90;;;;;;6274771;22;20176;-84
2022/03/26 04:18:53;;;;;;;112.35;57.78;;;7.50;99.90;;;;;;6274613;23;20187;-84
2022/03/26 04:21:21;;;;;;;109.45;58.05;;;7.50;99.90;;;;;;6273459;22;20168;-84
2022/03/26 04:23:48;;;;;;;119.82;61.67;;;7.50;99.90;;;;;;6262663;22;20200;-84
2022/03/26 04:26:15;;;;;;;120.93;59.58;;;7.30;99.90;;;;;;6269943;22;20161;-83
2022/03/26 04:28:42;;;;;;;111.15;58.15;;;7.40;99.90;;;;;;6273156;22;20184;-83
2022/03/26 04:31:09;;;;;;;112.80;58.13;;;7.40;99.90;;;;;;6273914;22;20200;-84
2022/03/26 04:33:36;;;;;;;119.90;58.60;;;7.40;99.90;;;;;;6259107;22;20172;-84
2022/03/26 04:36:04;;;;;;;96.57;49.03;;;7.50;99.90;;;;;;6252130;23;20185;-85
2022/03/26 04:38:32;;;;;;;120.28;56.80;;;7.40;99.90;;;;;;6253521;23;20183;-84
2022/03/26 04:40:59;;;;;;;110.85;55.53;;;7.40;99.90;;;;;;6252929;23;20230;-84
2022/03/26 04:43:26;;;;;;;109.05;58.00;;;7.40;99.90;;;;;;6251572;22;20177;-85
2022/03/26 04:45:52;;;;;;;100.32;52.50;;;7.40;99.90;;;;;;6253584;22;20184;-84
2022/03/26 04:48:19;;;;;;;101.43;52.70;;;7.40;99.90;;;;;;6255164;22;20214;-85
2022/03/26 04:50:47;;;;;;;108.43;53.97;;;7.40;99.90;;;;;;6253345;23;20170;-83
2022/03/26 04:53:13;;;;;;;122.22;52.42;;;7.40;99.90;;;;;;6252876;23;20178;-83
2022/03/26 04:55:42;;;;;;;106.60;51.13;;;7.40;99.90;;;;;;6252914;22;20208;-84
2022/03/26 04:58:09;;;;;;;116.35;55.90;;;7.40;99.90;;;;;;6253154;23;20173;-84
2022/03/26 05:00:36;;;;;;;115.55;55.45;;;7.40;99.90;;;;;;6252717;23;20210;-84
2022/03/26 05:03:03;;;;;;;100.18;51.50;;;7.40;99.90;;;;;;6252285;23;20231;-84
2022/03/26 05:05:30;;;;;;;101.85;50.92;;;7.40;99.90;;;;;;6252378;22;20271;-84
2022/03/26 05:07:59;;;;;;;97.93;52.15;;;7.40;99.90;;;;;;6253490;22;20204;-84
2022/03/26 05:10:28;;;;;;;105.55;52.60;;;7.40;99.90;;;;;;6252542;23;20183;-85
2022/03/26 05:12:58;;;;;;;101.28;54.20;;;7.40;99.90;;;;;;6252916;23;20251;-84
2022/03/26 05:15:27;;;;;;;123.63;55.30;;;7.40;99.90;;;;;;6252914;22;20203;-84
2022/03/26 05:17:55;;;;;;;92.95;51.53;;;7.40;99.90;;;;;;6253822;23;20171;-85
2022/03/26 05:20:23;;;;;;;108.05;53.67;;;7.50;99.90;;;;;;6254088;23;20173;-84
2022/03/26 05:22:51;;;;;;;102.07;50.90;;;7.40;99.90;;;;;;6254347;23;20177;-84
2022/03/26 05:25:18;;;;;;;108.25;49.50;;;7.40;99.90;;;;;;6254460;22;20200;-84
2022/03/26 05:27:46;;;;;;;111.72;55.17;;;7.50;99.90;;;;;;6254788;22;20626;-85
2022/03/26 05:30:16;;;;;;;105.43;52.85;;;7.40;99.90;;;;;;6253310;23;20480;-85
2022/03/26 05:32:43;;;;;;;102.30;50.75;;;7.40;99.90;;;;;;6253204;23;20215;-84
2022/03/26 05:35:13;;;;;;;104.15;53.60;;;7.50;99.90;;;;;;6253511;22;20246;-84
2022/03/26 05:37:41;;;;;;;94.18;50.75;;;7.50;99.90;;;;;;6252330;23;20204;-85
2022/03/26 05:40:09;;;;;;;104.13;54.17;;;7.50;99.90;;;;;;6251674;23;20176;-85
2022/03/26 05:42:36;;;;;;;109.20;56.70;;;7.50;99.90;;;;;;6252250;23;20696;-85
2022/03/26 05:45:03;;;;;;;101.35;55.00;;;7.50;99.90;;;;;;6252863;22;20280;-85
2022/03/26 05:47:32;;;;;;;102.53;51.97;;;7.50;99.90;;;;;;6253524;22;20712;-85
2022/03/26 05:49:59;;;;;;;100.00;51.60;;;7.50;99.90;;;;;;6254552;22;20624;-85
2022/03/26 05:52:26;;;;;;;101.72;51.95;;;7.70;99.90;;;;;;6253491;23;20173;-85
2022/03/26 05:54:53;;;;;;;103.63;50.28;;;7.60;99.90;;;;;;6253626;22;20221;-85
2022/03/26 05:57:20;;;;;;;121.63;57.13;;;7.60;99.90;;;;;;6253917;23;20557;-85
2022/03/26 05:59:48;;;;;;;108.28;53.38;;;7.60;99.90;;;;;;6252284;23;20182;-85
2022/03/26 06:02:15;;;;;;;105.63;52.28;;;7.80;99.90;;;;;;6256786;23;20637;-84
2022/03/26 06:04:43;;;;;;;105.60;55.80;;;7.90;99.90;;;;;;6263363;22;20192;-83
2022/03/26 06:07:11;;;;;;;106.95;51.85;;;7.80;99.90;;;;;;6273207;22;20177;-83
2022/03/26 06:09:38;;;;;;;103.53;52.15;;;7.90;99.90;;;;;;6272348;22;20181;-83
2022/03/26 06:12:06;;;;;;;91.78;49.85;;;8.20;99.90;;;;;;6270793;22;20181;-84
2022/03/26 06:14:34;;;;;;;89.13;50.72;;;8.60;99.90;;;;;;6271616;22;20182;-84
2022/03/26 06:17:01;;;;;;;94.15;46.22;;;9.30;99.90;;;;;;6262365;22;20186;-84
2022/03/26 06:19:28;;;;;;;84.03;50.20;;;10.00;99.90;;;;;;6264333;23;20262;-84
2022/03/26 06:21:57;;;;;;;92.05;51.30;;;10.70;99.90;;;;;;6254282;22;20225;-84
2022/03/26 06:24:24;;;;;;;81.72;46.75;;;11.40;99.90;;;;;;6256167;22;20201;-86
2022/03/26 06:26:51;;;;;;;85.47;44.67;;;12.10;99.90;;;;;;6256641;23;20613;-85
2022/03/26 06:29:18;;;;;;;87.57;50.83;;;12.80;99.90;;;;;;6255105;23;20194;-84
2022/03/26 06:31:45;;;;;;;92.65;50.25;;;13.50;99.50;;;;;;6258341;23;20186;-85
2022/03/26 06:34:12;;;;;;;86.18;52.40;;;14.00;97.20;;;;;;6254198;22;20194;-85
2022/03/26 06:36:39;;;;;;;87.05;51.05;;;14.90;95.50;;;;;;6254728;23;20175;-85
2022/03/26 06:39:08;;;;;;;81.95;48.28;;;15.50;93.30;;;;;;6255002;23;20201;-85
2022/03/26 06:41:38;;;;;;;79.18;50.08;;;15.80;91.40;;;;;;6254903;23;20180;-85
2022/03/26 06:44:07;;;;;;;78.85;47.30;;;16.20;90.60;;;;;;6256775;22;20192;-84
2022/03/26 06:46:34;;;;;;;88.70;50.03;;;16.60;90.20;;;;;;6257800;22;20169;-85
2022/03/26 06:49:01;;;;;;;79.77;52.70;;;17.50;87.30;;;;;;6254726;22;20409;-84
2022/03/26 06:51:28;;;;;;;78.77;50.23;;;17.90;84.70;;;;;;6252854;23;20406;-84
2022/03/26 06:53:55;;;;;;;83.37;53.77;;;18.30;82.30;;;;;;6252457;22;20512;-85
2022/03/26 06:56:23;;;;;;;85.13;50.90;;;18.90;80.20;;;;;;6252399;23;20490;-85
2022/03/26 06:58:50;;;;;;;76.47;47.90;;;18.90;78.40;;;;;;6253339;23;20474;-84
2022/03/26 07:01:17;;;;;;;87.20;51.37;;;19.10;77.80;;;;;;6252615;23;20736;-85
2022/03/26 07:03:44;;;;;;;78.90;46.77;;;19.50;76.20;;;;;;6253093;22;20486;-85
2022/03/26 07:06:12;;;;;;;83.33;51.50;;;19.50;75.60;;;;;;6253939;22;20417;-84
2022/03/26 07:08:39;;;;;;;85.90;53.07;;;20.00;75.00;;;;;;6254669;23;20876;-85
2022/03/26 07:11:28;;;;;;;83.27;52.93;;;19.90;73.70;;;;;;6251813;23;20421;-85
2022/03/26 07:13:56;;;;;;;80.97;50.77;;;20.40;73.20;;;;;;6252825;22;20442;-85
2022/03/26 07:16:23;;;;;;;79.20;52.73;;;20.70;72.30;;;;;;6254771;23;20899;-85
2022/03/26 07:18:50;;;;;;;77.83;50.57;;;20.90;71.20;;;;;;6254111;23;20433;-85
2022/03/26 07:21:17;;;;;;;72.73;49.87;;;21.20;70.20;;;;;;6253993;23;20435;-85
2022/03/26 07:23:43;;;;;;;69.20;49.10;;;21.50;69.00;;;;;;6255938;22;20462;-85
2022/03/26 07:26:10;;;;;;;88.43;53.43;;;21.70;68.60;;;;;;6255430;23;20417;-85
2022/03/26 07:28:37;;;;;;;79.23;51.10;;;21.40;67.20;;;;;;6255253;23;20400;-85
2022/03/26 07:31:06;;;;;;;76.93;50.80;;;21.20;67.80;;;;;;6254715;22;20439;-87
2022/03/26 07:33:33;;;;;;;78.23;49.30;;;21.00;67.50;;;;;;6254618;22;20414;-84
2022/03/26 07:36:00;;;;;;;83.93;52.53;;;21.10;67.80;;;;;;6254251;23;20406;-84
2022/03/26 07:38:27;;;;;;;77.20;47.17;;;21.70;67.30;;;;;;6269606;23;20467;-84
2022/03/26 07:40:54;;;;;;;79.10;51.10;;;22.00;66.20;;;;;;6268797;23;20412;-85
2022/03/26 07:43:21;;;;;;;80.60;50.03;;;22.10;65.00;;;;;;6271015;22;20443;-83
2022/03/26 07:45:48;;;;;;;81.60;50.30;;;22.20;64.90;;;;;;6270183;22;20406;-86
2022/03/26 07:48:16;;;;;;;76.73;48.73;;;22.30;64.60;;;;;;6268755;23;20398;-85
2022/03/26 07:50:43;;;;;;;79.40;50.67;;;22.20;63.70;;;;;;6270368;22;20410;-85
2022/03/26 07:53:11;;;;;;;77.93;52.93;;;22.40;63.20;;;;;;6272988;22;20405;-84
2022/03/26 07:55:38;;;;;;;75.03;49.93;;;22.50;63.10;;;;;;6272542;22;20442;-85
2022/03/26 07:58:05;;;;;;;80.10;50.97;;;22.30;63.50;;;;;;6272441;22;20409;-85
2022/03/26 08:00:32;;;;;;;85.27;52.17;;;22.50;63.20;;;;;;6273260;22;20425;-87
2022/03/26 08:02:58;;;;;;;76.50;49.10;;;22.20;63.10;;;;;;6272788;22;20378;-85
2022/03/26 08:05:27;;;;;;;82.33;49.30;;;22.40;63.20;;;;;;6272727;22;20438;-84
2022/03/26 08:07:54;;;;;;;73.23;49.27;;;22.70;63.00;;;;;;6271972;22;20460;-85
2022/03/26 08:10:20;;;;;;;72.40;50.37;;;22.80;62.10;;;;;;6272300;22;20394;-84
2022/03/26 08:12:47;;;;;;;76.77;47.90;;;22.30;63.10;;;;;;6272067;22;20409;-84
2022/03/26 08:15:14;;;;;;;74.30;49.37;;;22.60;63.40;;;;;;6268294;22;20417;-85
2022/03/26 08:17:41;;;;;;;74.20;49.80;;;22.80;62.90;;;;;;6261116;23;20395;-85
2022/03/26 08:20:09;;;;;;;74.20;50.67;;;22.60;62.70;;;;;;6255403;22;20448;-86
2022/03/26 08:22:38;;;;;;;72.73;46.10;;;22.70;63.20;;;;;;6252185;22;20406;-85
2022/03/26 08:25:09;;;;;;;75.33;45.50;;;23.00;63.50;;;;;;6253091;22;20446;-85
2022/03/26 08:27:36;;;;;;;69.20;47.47;;;22.70;62.90;;;;;;6252961;22;21097;-85
2022/03/26 08:30:04;;;;;;;68.73;46.90;;;22.80;63.80;;;;;;6253074;23;20943;-85
2022/03/26 08:32:31;;;;;;;72.20;45.33;;;23.10;63.30;;;;;;6252878;22;20414;-85
2022/03/26 08:34:58;;;;;;;60.40;42.40;;;23.30;63.00;;;;;;6254478;22;21007;-85
2022/03/26 08:37:26;;;;;;;70.47;44.43;;;23.80;62.90;;;;;;6252632;23;20414;-85
2022/03/26 08:39:54;;;;;;;64.10;45.80;;;23.80;62.50;;;;;;6251864;23;20442;-86
2022/03/26 08:42:21;;;;;;;64.40;44.00;;;24.00;62.10;;;;;;6255794;23;20464;-85
2022/03/26 08:44:48;;;;;;;62.67;44.07;;;24.60;61.40;;;;;;6255254;22;20476;-85
2022/03/26 08:47:16;;;;;;;66.67;44.13;;;24.40;61.00;;;;;;6253841;22;20421;-86
2022/03/26 08:49:44;;;;;;;57.50;42.70;;;24.60;61.10;;;;;;6253935;23;20433;-85
2022/03/26 08:52:11;;;;;;;56.13;38.30;;;24.60;61.00;;;;;;6252543;23;20765;-86
2022/03/26 08:54:38;;;;;;;55.10;38.37;;;24.60;61.20;;;;;;6252442;22;20495;-85
2022/03/26 08:57:06;;;;;;;64.40;41.77;;;24.30;61.70;;;;;;6257079;23;20410;-86
2022/03/26 08:59:33;;;;;;;58.13;40.60;;;24.10;62.20;;;;;;6256189;23;20504;-86
2022/03/26 09:02:00;;;;;;;61.17;40.40;;;24.30;61.70;;;;;;6255483;23;20413;-86
2022/03/26 09:04:27;;;;;;;60.63;43.00;;;24.50;62.00;;;;;;6260060;22;20398;-85
2022/03/26 09:06:54;;;;;;;55.80;40.27;;;24.40;61.30;;;;;;6272728;22;20390;-85
2022/03/26 09:09:21;;;;;;;57.70;39.07;;;24.00;62.00;;;;;;6272756;22;20405;-84
2022/03/26 09:11:49;;;;;;;50.20;37.67;;;23.70;63.10;;;;;;6272946;22;20414;-85
2022/03/26 09:14:18;;;;;;;56.50;40.63;;;23.80;63.80;;;;;;6264884;22;20448;-86
2022/03/26 09:16:44;;;;;;;62.80;40.77;;;24.30;63.10;;;;;;6261048;23;20451;-85
2022/03/26 09:19:11;;;;;;;51.23;38.50;;;24.60;62.50;;;;;;6255909;23;20483;-85
2022/03/26 09:21:38;;;;;;;52.70;36.77;;;24.60;62.40;;;;;;6256836;23;20405;-85
2022/03/26 09:24:05;;;;;;;54.20;40.20;;;25.00;62.00;;;;;;6256380;22;20433;-85
2022/03/26 09:26:32;;;;;;;55.77;39.27;;;24.70;62.00;;;;;;6256213;23;20432;-87
2022/03/26 09:28:59;;;;;;;48.00;37.63;;;24.30;62.60;;;;;;6256914;23;20868;-85
2022/03/26 09:31:28;;;;;;;48.77;34.70;;;24.40;63.40;;;;;;6254632;23;20417;-86
2022/03/26 09:33:55;;;;;;;48.40;36.30;;;24.50;63.00;;;;;;6254323;22;20429;-85
2022/03/26 09:36:22;;;;;;;48.07;34.40;;;24.10;63.50;;;;;;6259973;22;20485;-86
2022/03/26 09:38:49;;;;;;;42.40;32.13;;;24.30;64.20;;;;;;6255874;22;20450;-86
2022/03/26 09:41:16;;;;;;;42.40;29.80;;;24.80;64.00;;;;;;6254627;23;20751;-86
2022/03/26 09:43:43;;;;;;;53.67;30.33;;;25.30;62.00;;;;;;6255947;22;20900;-86
2022/03/26 09:46:12;;;;;;;38.90;27.60;;;25.20;62.50;;;;;;6255778;23;20919;-85
2022/03/26 09:48:40;;;;;;;35.90;26.10;;;25.10;62.40;;;;;;6253966;23;20486;-86
2022/03/26 09:51:09;;;;;;;34.23;25.23;;;25.00;62.20;;;;;;6254896;23;20416;-85
2022/03/26 09:53:36;;;;;;;32.10;22.27;;;25.30;62.80;;;;;;6255528;22;20888;-85
2022/03/26 09:56:04;;;;;;;33.87;23.93;;;25.90;62.10;;;;;;6240046;22;20457;-72
2022/03/26 09:58:30;;;;;;;29.87;22.17;;;25.90;61.00;;;;;;6246307;23;20406;-73
2022/03/26 10:00:57;;;;;;;30.93;23.37;;;25.60;62.00;;;;;;6246041;23;20422;-74
2022/03/26 10:03:25;;;;;;;29.57;21.90;;;25.50;61.40;;;;;;6246450;22;20477;-75
2022/03/26 10:06:03;;;;;;;25.60;19.57;;;24.60;61.50;;;;;;6246257;23;20389;-73
2022/03/26 10:08:31;;;;;;;34.23;19.87;;;23.80;64.00;;;;;;6244227;23;20390;-76
2022/03/26 10:10:58;;;;;;;23.30;17.97;;;23.10;65.30;;;;;;6245918;23;20421;-74
2022/03/26 10:13:38;;;;;;;23.90;17.20;;;22.80;66.20;;;;;;6246044;22;20429;-73
2022/03/26 10:16:07;;;;;;;19.47;14.57;;;22.50;67.10;;;;;;6246274;23;20426;-74
2022/03/26 10:18:39;;;;;;;16.90;13.67;;;22.80;68.30;;;;;;6246429;23;20397;-75
2022/03/26 10:21:14;;;;;;;19.53;14.60;;;23.10;67.20;;;;;;6246502;23;20869;-75
2022/03/26 10:23:43;;;;;;;15.90;13.13;;;22.60;67.30;;;;;;6248981;22;20430;-74
2022/03/26 10:26:12;;;;;;;16.20;12.33;;;22.00;69.30;;;;;;6247999;23;20432;-73
2022/03/26 10:28:40;;;;;;;19.70;13.10;;;21.90;70.50;;;;;;6247181;23;20673;-73
2022/03/26 10:34:14;;;;;;;13.30;10.40;;;22.10;72.00;;;;;;6247884;22;20408;-72
2022/03/26 10:36:44;;;;;;;13.70;10.40;;;22.60;70.40;;;;;;6246742;23;20444;-74
2022/03/26 10:39:21;;;;;;;18.57;10.80;;;22.50;69.60;;;;;;6247032;23;20434;-73
2022/03/26 10:41:49;;;;;;;18.30;11.10;;;22.30;70.60;;;;;;6246279;23;20392;-72
2022/03/26 10:44:17;;;;;;;18.33;11.73;;;22.60;70.20;;;;;;6246992;22;20447;-73
2022/03/26 10:47:00;;;;;;;19.47;13.00;;;22.40;70.60;;;;;;6246794;23;20412;-75
2022/03/26 10:49:29;;;;;;;16.93;12.20;;;22.20;71.00;;;;;;6246027;23;20787;-74
2022/03/26 10:52:11;;;;;;;21.10;14.17;;;21.90;71.90;;;;;;6246185;23;20415;-72
2022/03/26 10:54:49;;;;;;;25.03;12.37;;;21.50;72.40;;;;;;6245953;22;20452;-72
2022/03/26 10:57:20;;;;;;;16.47;12.80;;;21.30;74.10;;;;;;6246203;23;20932;-75
2022/03/26 10:59:49;;;;;;;19.50;13.63;;;21.20;74.50;;;;;;6245664;23;20537;-72
2022/03/26 11:02:17;;;;;;;18.03;12.40;;;21.20;74.50;;;;;;6248829;23;20429;-71
2022/03/26 11:04:43;;;;;;;18.50;12.87;;;20.50;75.90;;;;;;6245699;22;20430;-74
2022/03/26 11:07:13;;;;;;;16.20;12.40;;;20.10;77.50;;;;;;6246146;23;20478;-74
2022/03/26 11:09:42;;;;;;;17.60;12.93;;;19.80;78.90;;;;;;6245045;23;20393;-76
2022/03/26 11:12:10;;;;;;;17.87;11.43;;;19.70;79.90;;;;;;6246141;23;20390;-74
2022/03/26 11:14:41;;;;;;;16.27;11.30;;;19.50;81.20;;;;;;6247065;22;20798;-72
2022/03/26 11:17:22;;;;;;;17.70;12.37;;;19.70;81.30;;;;;;6247015;23;20405;-72
2022/03/26 11:20:06;;;;;;;17.17;12.53;;;19.90;81.70;;;;;;6244553;23;20425;-74
2022/03/26 11:22:52;;;;;;;15.13;11.60;;;20.30;80.40;;;;;;6244914;23;20481;-75
2022/03/26 11:25:38;;;;;;;15.17;11.30;;;20.70;80.00;;;;;;6246085;22;20521;-73
2022/03/26 11:28:23;;;;;;;17.10;10.47;;;20.50;78.90;;;;;;6245697;23;20414;-73
2022/03/26 11:30:55;;;;;;;12.67;7.20;;;20.20;79.20;;;;;;6243665;23;20429;-72
2022/03/26 11:33:22;;;;;;;12.73;8.20;;;19.60;79.70;;;;;;6245609;22;20413;-72
2022/03/26 11:35:56;;;;;;;10.90;8.10;;;19.30;81.50;;;;;;6245452;22;20414;-73
2022/03/26 11:38:27;;;;;;;12.27;7.97;;;19.20;82.20;;;;;;6246009;23;20390;-74
2022/03/26 11:40:56;;;;;;;13.07;6.30;;;19.10;82.50;;;;;;6244685;23;20920;-75
2022/03/26 11:44:03;;;;;;;11.90;5.20;;;19.00;82.30;;;;;;6245390;22;20395;-73
2022/03/26 11:52:15;;;;;;;9.20;5.87;;;19.00;84.40;;;;;;6244940;23;20365;-75
2022/03/26 11:54:44;;;;;;;8.57;6.17;;;18.90;83.80;;;;;;6244620;22;20500;-72
2022/03/26 11:57:16;;;;;;;9.00;6.00;;;18.60;84.80;;;;;;6245911;22;20390;-71
2022/03/26 11:59:43;;;;;;;8.37;5.90;;;18.50;85.80;;;;;;6244364;23;20430;-73
2022/03/26 12:02:35;;;;;;;8.73;5.77;;;18.50;85.90;;;;;;6244944;23;20425;-73
2022/03/26 12:07:46;;;;;;;6.77;5.53;;;18.60;86.70;;;;;;6245054;23;20484;-72
2022/03/26 12:10:19;;;;;;;8.70;4.80;;;18.80;86.50;;;;;;6244526;23;20418;-74
2022/03/26 12:12:51;;;;;;;7.47;4.63;;;19.10;85.70;;;;;;6245346;23;20392;-72
2022/03/26 12:15:31;;;;;;;6.90;5.07;;;19.40;85.00;;;;;;6246357;22;20426;-74
2022/03/26 12:18:14;;;;;;;10.07;5.90;;;19.70;84.10;;;;;;6247303;23;20398;-72
2022/03/26 12:20:43;;;;;;;6.50;5.13;;;19.70;83.40;;;;;;6244757;23;20425;-74
2022/03/26 12:23:13;;;;;;;12.43;5.80;;;19.30;84.60;;;;;;6244933;22;20424;-75
2022/03/26 12:25:48;;;;;;;9.37;5.83;;;19.40;85.20;;;;;;6245113;23;20394;-74
2022/03/26 12:28:18;;;;;;;8.20;4.77;;;19.40;84.80;;;;;;6246974;22;20429;-72
2022/03/26 12:30:47;;;;;;;7.67;6.30;;;19.50;85.10;;;;;;6245558;23;20421;-75
2022/03/26 12:33:14;;;;;;;11.70;6.77;;;19.60;85.20;;;;;;6247642;22;20469;-75
2022/03/26 12:35:44;;;;;;;12.83;6.40;;;19.30;85.60;;;;;;6247546;23;20404;-73
2022/03/26 12:38:12;;;;;;;6.93;5.60;;;19.30;86.60;;;;;;6247668;23;20404;-73
2022/03/26 12:40:39;;;;;;;14.50;7.90;;;19.50;86.90;;;;;;6247453;23;20425;-74
2022/03/26 12:43:10;;;;;;;8.27;6.50;;;19.50;86.20;;;;;;6248082;22;20404;-74
2022/03/26 12:45:37;;;;;;;13.43;7.17;;;19.20;86.70;;;;;;6248900;23;20390;-73